ENAL

Ålesund Airport

Ålesund, Norway
METAR ENAL 180250Z AUTO 26009KT 7000 -RA FEW005/// BKN014/// OVC022/// 05/04 Q1008 REDZ
Observed Flight Rules
Dec-18 @ 02:50 UTC (19 minutes ago) Marginal Visual Flight Rules
Wind Visibility Clouds Conditions
260° at 9 knots 7,001 meters
  • Few at 500' AGL
  • Broken at 1,400' AGL
  • Overcast at 2,200' AGL
  • Light Rain
Temperatures Readings
Current 5°C / 41°F
Dewpoint 4°C / 39°F
Humidity 93%
Altimeter 29.76" Hg
Pressure 1008 hPa
Elevation 22
METAR ENAL 180250Z AUTO 26009KT 7000 -RA FEW005/// BKN014/// OVC022/// 05/04 Q1008 REDZ
Observed Flight Rules
Dec-18 @ 02:50 UTC
(19 minutes ago)
MVFR
Wind Visibility
260° at 9 knots 7,001 meters
Clouds
  • Few at 500' AGL
  • Broken at 1,400' AGL
  • Overcast at 2,200' AGL
Conditions
  • Light Rain
Temperature Dewpoint
5°C / 41°F 4°C / 39°F
Humidity Altimeter Pressure
93% 29.76" Hg 1008 hPa